Time,TemperatureF,DewpointF,PressureIn,WindDirection,WindDirectionDegrees,WindSpeedMPH,WindSpeedGustMPH,Humidity,HourlyPrecipIn,Conditions,Clouds,dailyrainin,SoftwareType,DateUTC
2013-07-24 00:02:00,69.0,63.0,-100.00,NNE,19,-999.0,0.0,81,-99.99,,,-99.99,,2013-07-24 07:02:00,
2013-07-24 00:11:00,69.0,63.0,-100.00,NNE,19,-999.0,0.0,81,-99.99,,,-99.99,,2013-07-24 07:11:00,
2013-07-24 00:22:00,69.0,63.0,-100.00,NNE,19,-999.0,0.0,81,-99.99,,,-99.99,,2013-07-24 07:22:00,
2013-07-24 00:32:00,69.0,63.0,-100.00,NNE,19,-999.0,0.0,81,-99.99,,,-99.99,,2013-07-24 07:32:00,
2013-07-24 00:43:00,68.0,62.0,-100.00,NNE,19,-999.0,1.0,82,-99.99,,,-99.99,,2013-07-24 07:43:00,
2013-07-24 00:53:00,68.0,62.0,-100.00,NNE,19,-999.0,1.0,82,-99.99,,,-99.99,,2013-07-24 07:53:00,
2013-07-24 01:02:00,68.0,62.0,-100.00,NNE,19,-999.0,1.0,82,-99.99,,,-99.99,,2013-07-24 08:02:00,
2013-07-24 01:12:00,67.0,62.0,-100.00,NNE,19,-999.0,0.0,84,-99.99,,,-99.99,,2013-07-24 08:12:00,
2013-07-24 01:22:00,67.0,62.0,-100.00,NNE,19,-999.0,0.0,84,-99.99,,,-99.99,,2013-07-24 08:22:00,
2013-07-24 01:32:00,67.0,62.0,-100.00,NNE,19,-999.0,0.0,84,-99.99,,,-99.99,,2013-07-24 08:32:00,
2013-07-24 01:42:00,67.0,62.0,-100.00,NNE,19,-999.0,0.0,84,-99.99,,,-99.99,,2013-07-24 08:42:00,
2013-07-24 01:52:00,67.0,62.0,-100.00,NNE,19,-999.0,0.0,84,-99.99,,,-99.99,,2013-07-24 08:52:00,
2013-07-24 02:02:00,67.0,62.0,-100.00,NNE,19,-999.0,0.0,85,-99.99,,,-99.99,,2013-07-24 09:02:00,
2013-07-24 02:11:00,67.0,62.0,-100.00,NNE,19,-999.0,0.0,85,-99.99,,,-99.99,,2013-07-24 09:11:00,
2013-07-24 02:22:00,67.0,62.0,-100.00,NNE,19,-999.0,0.0,85,-99.99,,,-99.99,,2013-07-24 09:22:00,
2013-07-24 02:32:00,67.0,62.0,-100.00,NNE,19,-999.0,0.0,85,-99.99,,,-99.99,,2013-07-24 09:32:00,
2013-07-24 02:43:00,66.0,61.0,-100.00,NNE,19,-999.0,-999.0,85,-99.99,,,-99.99,,2013-07-24 09:43:00,
2013-07-24 02:53:00,66.0,61.0,-100.00,NNE,19,-999.0,-999.0,85,-99.99,,,-99.99,,2013-07-24 09:53:00,
2013-07-24 03:02:00,66.0,61.0,-100.00,NNE,19,-999.0,0.0,85,-99.99,,,-99.99,,2013-07-24 10:02:00,
2013-07-24 03:12:00,66.0,62.0,-100.00,NNE,19,-999.0,0.0,87,-99.99,,,-99.99,,2013-07-24 10:12:00,
2013-07-24 03:22:00,66.0,62.0,-100.00,NNE,19,-999.0,0.0,87,-99.99,,,-99.99,,2013-07-24 10:22:00,
2013-07-24 03:32:00,66.0,62.0,-100.00,NNE,19,-999.0,0.0,87,-99.99,,,-99.99,,2013-07-24 10:32:00,
2013-07-24 03:43:00,65.0,62.0,-100.00,NNE,19,-999.0,0.0,89,-99.99,,,-99.99,,2013-07-24 10:43:00,
2013-07-24 03:53:00,65.0,62.0,-100.00,NNE,19,-999.0,0.0,89,-99.99,,,-99.99,,2013-07-24 10:53:00,
2013-07-24 04:02:00,64.0,61.0,-100.00,NNE,19,-999.0,0.0,91,-99.99,,,-99.99,,2013-07-24 11:02:00,
2013-07-24 04:11:00,64.0,61.0,-100.00,NNE,19,-999.0,0.0,91,-99.99,,,-99.99,,2013-07-24 11:11:00,
2013-07-24 04:22:00,64.0,61.0,-100.00,NNE,19,-999.0,0.0,91,-99.99,,,-99.99,,2013-07-24 11:22:00,
2013-07-24 04:43:00,65.0,62.0,-100.00,NNE,19,-999.0,0.0,91,-99.99,,,-99.99,,2013-07-24 11:43:00,
2013-07-24 04:52:00,65.0,62.0,-100.00,NNE,19,-999.0,0.0,91,-99.99,,,-99.99,,2013-07-24 11:52:00,
2013-07-24 05:02:00,65.0,62.0,-100.00,NNE,19,-999.0,0.0,91,-99.99,,,-99.99,,2013-07-24 12:02:00,
2013-07-24 05:12:00,66.0,63.0,-100.00,NNE,19,-999.0,0.0,89,-99.99,,,-99.99,,2013-07-24 12:12:00,
2013-07-24 05:22:00,66.0,63.0,-100.00,NNE,19,-999.0,0.0,89,-99.99,,,-99.99,,2013-07-24 12:22:00,
2013-07-24 05:32:00,66.0,63.0,-100.00,NNE,19,-999.0,0.0,89,-99.99,,,-99.99,,2013-07-24 12:32:00,
2013-07-24 05:42:00,65.0,62.0,-100.00,NNE,19,-999.0,0.0,90,-99.99,,,-99.99,,2013-07-24 12:42:00,
2013-07-24 05:52:00,65.0,62.0,-100.00,NNE,19,-999.0,0.0,90,-99.99,,,-99.99,,2013-07-24 12:52:00,
2013-07-24 06:02:00,65.0,62.0,-100.00,NNE,19,-999.0,0.0,90,-99.99,,,-99.99,,2013-07-24 13:02:00,
2013-07-24 06:11:00,63.0,61.0,-100.00,NNE,19,-999.0,0.0,93,-99.99,,,-99.99,,2013-07-24 13:11:00,
2013-07-24 06:22:00,63.0,61.0,-100.00,NNE,19,-999.0,0.0,93,-99.99,,,-99.99,,2013-07-24 13:22:00,
2013-07-24 06:43:00,63.0,62.0,-100.00,NNE,19,-999.0,0.0,95,-99.99,,,-99.99,,2013-07-24 13:43:00,
2013-07-24 06:53:00,63.0,62.0,-100.00,NNE,19,-999.0,0.0,95,-99.99,,,-99.99,,2013-07-24 13:53:00,
2013-07-24 07:02:00,63.0,62.0,-100.00,NNE,19,-999.0,0.0,95,-99.99,,,-99.99,,2013-07-24 14:02:00,
2013-07-24 07:12:00,65.0,62.0,-100.00,NNE,18,-999.0,0.0,91,-99.99,,,-99.99,,2013-07-24 14:12:00,
2013-07-24 07:22:00,65.0,62.0,-100.00,NNE,18,-999.0,0.0,91,-99.99,,,-99.99,,2013-07-24 14:22:00,
2013-07-24 07:32:00,65.0,62.0,-100.00,NNE,18,-999.0,0.0,91,-99.99,,,-99.99,,2013-07-24 14:32:00,
2013-07-24 07:43:00,67.0,63.0,-100.00,NNE,17,-999.0,0.0,86,-99.99,,,-99.99,,2013-07-24 14:43:00,
2013-07-24 07:55:00,67.0,63.0,-100.00,NNE,17,-999.0,0.0,86,-99.99,,,-99.99,,2013-07-24 14:55:00,
2013-07-24 08:02:00,67.0,63.0,-100.00,NNE,17,-999.0,0.0,86,-99.99,,,-99.99,,2013-07-24 15:02:00,
2013-07-24 14:12:00,81.0,-99.9,-100.00,WSW,254,-999.0,9.0,0,-99.99,,,-99.99,,2013-07-24 21:12:00,
2013-07-24 17:43:00,79.0,59.0,-100.00,ESE,109,-999.0,7.0,50,-99.99,,,-99.99,,2013-07-25 00:43:00,
2013-07-24 19:02:00,76.0,58.0,-100.00,SSW,210,-999.0,5.0,54,-99.99,,,-99.99,,2013-07-25 02:02:00,
2013-07-24 19:12:00,76.0,58.0,-100.00,SSW,210,-999.0,5.0,54,-99.99,,,-99.99,,2013-07-25 02:12:00,
2013-07-24 19:22:00,76.0,58.0,-100.00,SSW,210,-999.0,5.0,54,-99.99,,,-99.99,,2013-07-25 02:22:00,
2013-07-24 19:33:00,72.0,58.0,-100.00,SSW,204,-999.0,8.0,61,-99.99,,,-99.99,,2013-07-25 02:33:00,
2013-07-24 19:43:00,72.0,58.0,-100.00,SSW,204,-999.0,8.0,61,-99.99,,,-99.99,,2013-07-25 02:43:00,
2013-07-24 19:53:00,72.0,58.0,-100.00,SSW,204,-999.0,8.0,61,-99.99,,,-99.99,,2013-07-25 02:53:00,
2013-07-24 20:02:00,72.0,58.0,-100.00,SSW,204,-999.0,8.0,61,-99.99,,,-99.99,,2013-07-25 03:02:00,
2013-07-24 20:12:00,69.0,58.0,-100.00,SW,215,-999.0,6.0,68,-99.99,,,-99.99,,2013-07-25 03:12:00,
2013-07-24 20:24:00,69.0,58.0,-100.00,SW,215,-999.0,6.0,68,-99.99,,,-99.99,,2013-07-25 03:24:00,
2013-07-24 20:33:00,69.0,58.0,-100.00,SW,215,-999.0,6.0,68,-99.99,,,-99.99,,2013-07-25 03:33:00,
2013-07-24 21:12:00,69.0,58.0,-100.00,SE,146,-999.0,6.0,67,-99.99,,,-99.99,,2013-07-25 04:12:00,
2013-07-24 21:22:00,69.0,58.0,-100.00,SE,146,-999.0,6.0,67,-99.99,,,-99.99,,2013-07-25 04:22:00,
2013-07-24 21:32:00,69.0,58.0,-100.00,SE,146,-999.0,5.0,67,-99.99,,,-99.99,,2013-07-25 04:32:00,
2013-07-24 21:43:00,68.0,58.0,-100.00,SE,143,-999.0,5.0,70,-99.99,,,-99.99,,2013-07-25 04:43:00,
2013-07-24 21:53:00,68.0,58.0,-100.00,SE,143,-999.0,5.0,70,-99.99,,,-99.99,,2013-07-25 04:53:00,
2013-07-24 22:02:00,68.0,58.0,-100.00,SE,143,-999.0,0.0,70,-99.99,,,-99.99,,2013-07-25 05:02:00,
2013-07-24 22:12:00,67.0,58.0,-100.00,SE,143,-999.0,0.0,72,-99.99,,,-99.99,,2013-07-25 05:12:00,
2013-07-24 22:22:00,67.0,58.0,-100.00,SE,143,-999.0,0.0,72,-99.99,,,-99.99,,2013-07-25 05:22:00,
2013-07-24 22:32:00,67.0,58.0,-100.00,SE,143,-999.0,0.0,72,-99.99,,,-99.99,,2013-07-25 05:32:00,
2013-07-24 22:43:00,67.0,58.0,-100.00,ENE,57,-999.0,0.0,72,-99.99,,,0.00,,2013-07-25 05:43:00,
2013-07-24 22:52:00,67.0,58.0,-100.00,ENE,57,-999.0,0.0,72,-99.99,,,0.00,,2013-07-25 05:52:00,
2013-07-24 23:12:00,65.0,57.0,-100.00,NE,39,-999.0,0.0,75,-99.99,,,-99.99,,2013-07-25 06:12:00,
2013-07-24 23:22:00,65.0,57.0,-100.00,NE,39,-999.0,0.0,75,-99.99,,,-99.99,,2013-07-25 06:22:00,
2013-07-24 23:32:00,65.0,-99.9,-100.00,NE,39,-999.0,40.0,-999,-99.99,,,-99.99,,2013-07-25 06:32:00,
2013-07-24 23:42:00,65.0,-99.9,-100.00,NE,39,-999.0,40.0,-999,-99.99,,,-99.99,,2013-07-25 06:42:00,
2013-07-24 23:52:00,65.0,-99.9,-100.00,NE,39,-999.0,40.0,-999,-99.99,,,-99.99,,2013-07-25 06:52:00,